Terminal Aerodrome Forecast
Issued by NWS Shreveport, LA

Home | Current Version | Previous Version | Text Only | Print | Product List | Glossary On
Versions: 1 2 3 4 5 6 7 8 9 10 11 12 13
728
FTUS44 KSHV 202320
TAFSHV
TAF
KSHV 202320Z 2100/2124 VRB03KT P6SM SCT050 BKN120 BKN250
     FM210300 VRB03KT P6SM FEW050 SCT250
      TEMPO 2110/2113 6SM BR
     FM211400 16004KT P6SM SCT045 SCT250
     FM211800 15006KT P6SM BKN050=

USA.gov is the U.S. government's official web portal to all federal, state and local government web resources and services.